Time;durP1;ratioP1;P1;durP2;ratioP2;P2;SDS_P1;SDS_P2;PMS_P1;PMS_P2;Temp;Humidity;BMP_temperature;BMP_pressure;BME280_temperature;BME280_humidity;BME280_pressure;Samples;Min_cycle;Max_cycle;Signal;HPM_P1;HPM_P2
2020/12/16 00:01:40;;;;;;;22.45;12.95;;;5.50;99.90;;;;;;5026208;28;20049;-77
2020/12/16 00:04:06;;;;;;;25.83;15.05;;;5.60;99.90;;;;;;5010611;28;20026;-75
2020/12/16 00:06:32;;;;;;;29.25;16.25;;;5.60;99.90;;;;;;5013981;28;20072;-77
2020/12/16 00:08:57;;;;;;;27.80;15.00;;;5.60;99.90;;;;;;5016847;28;20033;-77
2020/12/16 00:11:25;;;;;;;34.40;19.80;;;5.60;99.90;;;;;;5026199;28;20029;-79
2020/12/16 00:13:51;;;;;;;21.45;12.05;;;5.60;99.90;;;;;;4997059;28;20050;-78
2020/12/16 00:16:17;;;;;;;22.98;14.40;;;5.60;99.90;;;;;;5013227;28;20594;-78
2020/12/16 00:18:44;;;;;;;20.52;12.38;;;5.60;99.90;;;;;;5018272;28;20026;-72
2020/12/16 00:21:09;;;;;;;22.58;11.73;;;5.60;99.90;;;;;;5019986;28;20033;-71
2020/12/16 00:23:35;;;;;;;23.33;11.38;;;5.60;99.90;;;;;;5032893;28;20033;-71
2020/12/16 00:26:01;;;;;;;24.13;12.45;;;5.60;99.90;;;;;;5032690;28;20475;-70
2020/12/16 00:28:26;;;;;;;22.75;13.43;;;5.60;99.90;;;;;;5032118;28;20052;-71
2020/12/16 00:30:52;;;;;;;17.52;11.02;;;5.60;99.90;;;;;;5019609;28;20056;-70
2020/12/16 00:33:18;;;;;;;22.63;12.30;;;5.60;99.90;;;;;;5022000;28;20427;-71
2020/12/16 00:35:45;;;;;;;18.95;12.38;;;5.60;99.90;;;;;;5030263;28;20022;-70
2020/12/16 00:38:11;;;;;;;24.30;12.77;;;5.60;99.90;;;;;;5032857;28;20479;-70
2020/12/16 00:40:38;;;;;;;20.13;11.82;;;5.60;99.90;;;;;;5032698;28;20037;-71
2020/12/16 00:43:04;;;;;;;19.73;12.10;;;5.60;99.90;;;;;;5016182;28;20036;-69
2020/12/16 00:45:30;;;;;;;21.90;12.77;;;5.60;99.90;;;;;;4997227;28;20026;-71
2020/12/16 00:47:56;;;;;;;22.48;10.40;;;5.60;99.90;;;;;;5024838;28;20091;-71
2020/12/16 00:50:21;;;;;;;19.02;9.63;;;5.60;99.90;;;;;;5031701;28;20463;-72
2020/12/16 00:52:47;;;;;;;17.65;11.90;;;5.60;99.90;;;;;;5023071;28;20049;-73
2020/12/16 00:55:13;;;;;;;19.45;11.30;;;5.60;99.90;;;;;;5020286;28;20057;-70
2020/12/16 00:57:38;;;;;;;19.67;10.85;;;5.50;99.90;;;;;;5021981;28;20100;-70
2020/12/16 01:00:09;;;;;;;17.13;10.20;;;5.60;99.90;;;;;;5032442;28;20482;-73
2020/12/16 01:02:45;;;;;;;23.15;10.13;;;5.60;99.90;;;;;;5013062;28;20022;-71
2020/12/16 01:05:13;;;;;;;16.98;10.32;;;5.50;99.90;;;;;;5025588;28;20025;-76
2020/12/16 01:07:39;;;;;;;18.38;10.18;;;5.50;99.90;;;;;;5012913;28;20029;-74
2020/12/16 01:10:07;;;;;;;18.48;11.77;;;5.50;99.90;;;;;;5014398;28;20468;-75
2020/12/16 01:12:40;;;;;;;23.27;11.77;;;5.50;99.90;;;;;;5012651;28;20025;-69
2020/12/16 01:15:17;;;;;;;23.60;12.20;;;5.60;99.90;;;;;;5012942;28;20069;-70
2020/12/16 01:17:44;;;;;;;24.42;13.68;;;5.60;99.90;;;;;;5012444;28;20038;-72
2020/12/16 01:20:11;;;;;;;27.10;13.93;;;5.60;99.90;;;;;;5012318;28;20037;-70
2020/12/16 01:22:41;;;;;;;29.50;18.17;;;5.60;99.90;;;;;;5014868;28;20380;-69
2020/12/16 01:25:07;;;;;;;35.13;17.95;;;5.70;99.90;;;;;;5016154;28;20026;-70
2020/12/16 01:27:33;;;;;;;35.05;15.10;;;5.60;99.90;;;;;;5015835;28;20029;-71
2020/12/16 01:29:59;;;;;;;24.80;15.43;;;5.60;99.90;;;;;;5016407;28;20021;-70
2020/12/16 01:32:26;;;;;;;25.73;15.32;;;5.60;99.90;;;;;;5016175;28;20029;-70
2020/12/16 01:34:51;;;;;;;26.48;18.75;;;5.60;99.90;;;;;;5021741;28;20029;-69
2020/12/16 01:37:17;;;;;;;36.83;20.45;;;5.60;99.90;;;;;;5024389;28;20026;-69
2020/12/16 01:39:43;;;;;;;35.20;19.45;;;5.60;99.90;;;;;;5016224;28;20108;-70
2020/12/16 01:42:09;;;;;;;30.52;19.25;;;5.60;99.90;;;;;;5015684;28;20080;-70
2020/12/16 01:44:34;;;;;;;25.65;13.55;;;5.60;99.90;;;;;;5016156;28;20472;-71
2020/12/16 01:47:02;;;;;;;27.38;16.55;;;5.60;99.90;;;;;;5029608;28;20021;-69
2020/12/16 01:49:28;;;;;;;26.33;13.15;;;5.60;99.90;;;;;;5025567;28;20029;-69
2020/12/16 01:51:57;;;;;;;27.40;16.45;;;5.60;99.90;;;;;;5035739;28;20029;-73
2020/12/16 01:54:24;;;;;;;30.73;17.17;;;5.50;99.90;;;;;;5035635;28;20364;-72
2020/12/16 01:57:02;;;;;;;32.00;16.55;;;5.50;99.90;;;;;;5020496;28;20041;-74
2020/12/16 01:59:31;;;;;;;50.97;26.77;;;5.50;99.90;;;;;;5024079;28;20032;-76
2020/12/16 02:01:57;;;;;;;57.40;36.63;;;5.50;99.90;;;;;;5004293;28;20045;-74
2020/12/16 02:04:24;;;;;;;69.90;41.67;;;5.50;99.90;;;;;;5035447;28;20052;-76
2020/12/16 02:06:57;;;;;;;59.55;38.13;;;5.50;99.90;;;;;;5035704;28;20108;-69
2020/12/16 02:09:23;;;;;;;71.70;44.57;;;5.50;99.90;;;;;;5035660;28;20467;-69
2020/12/16 02:11:49;;;;;;;79.80;39.17;;;5.40;99.90;;;;;;5035465;28;20255;-71
2020/12/16 02:14:15;;;;;;;68.97;43.03;;;5.50;99.90;;;;;;5036069;28;20045;-71
2020/12/16 02:16:41;;;;;;;63.75;39.00;;;5.40;99.90;;;;;;5008190;28;20447;-68
2020/12/16 02:19:08;;;;;;;80.38;49.40;;;5.50;99.90;;;;;;5030100;28;20053;-71
2020/12/16 02:21:35;;;;;;;75.57;48.30;;;5.40;99.90;;;;;;5015642;28;20357;-70
2020/12/16 02:24:05;;;;;;;63.55;38.50;;;5.40;99.90;;;;;;5030319;28;20025;-69
2020/12/16 02:26:33;;;;;;;65.15;38.67;;;5.50;99.90;;;;;;5035935;28;20017;-70
2020/12/16 02:28:59;;;;;;;30.92;18.20;;;5.40;99.90;;;;;;5022128;28;20026;-71
2020/12/16 02:31:28;;;;;;;27.25;15.30;;;5.40;99.90;;;;;;5021176;28;20032;-70
2020/12/16 02:33:54;;;;;;;33.13;18.30;;;5.40;99.90;;;;;;5035014;28;20491;-69
2020/12/16 02:36:19;;;;;;;23.98;13.57;;;5.40;99.90;;;;;;5035040;28;20127;-72
2020/12/16 02:38:46;;;;;;;22.05;12.60;;;5.40;99.90;;;;;;5025572;28;20101;-69
2020/12/16 02:41:12;;;;;;;25.02;11.52;;;5.40;99.90;;;;;;5015102;28;20038;-69
2020/12/16 02:43:38;;;;;;;23.15;12.15;;;5.40;99.90;;;;;;5015610;28;20029;-71
2020/12/16 02:46:05;;;;;;;19.70;11.57;;;5.40;99.90;;;;;;5015714;28;20108;-71
2020/12/16 02:48:30;;;;;;;24.42;12.63;;;5.30;99.90;;;;;;5017609;28;20479;-70
2020/12/16 02:50:56;;;;;;;17.50;11.20;;;5.40;99.90;;;;;;5027163;28;20029;-70
2020/12/16 02:53:22;;;;;;;23.05;12.73;;;5.40;99.90;;;;;;5015289;28;20022;-71
2020/12/16 02:55:48;;;;;;;23.02;12.45;;;5.40;99.90;;;;;;5015405;28;20097;-71
2020/12/16 02:58:13;;;;;;;21.17;11.82;;;5.40;99.90;;;;;;5016191;28;20109;-69
2020/12/16 03:00:39;;;;;;;19.75;11.68;;;5.40;99.90;;;;;;5015149;28;20050;-71
2020/12/16 03:03:05;;;;;;;20.00;12.95;;;5.30;99.90;;;;;;5015252;28;20080;-71
2020/12/16 03:05:31;;;;;;;21.60;12.63;;;5.30;99.90;;;;;;4997530;28;20076;-71
2020/12/16 03:07:56;;;;;;;21.52;12.57;;;5.30;99.90;;;;;;5015454;28;20026;-71
2020/12/16 03:10:22;;;;;;;33.72;11.85;;;5.30;99.90;;;;;;5014950;28;20449;-70
2020/12/16 03:12:48;;;;;;;23.27;12.60;;;5.30;99.90;;;;;;4997831;28;20057;-72
2020/12/16 03:15:13;;;;;;;21.83;11.85;;;5.20;99.90;;;;;;5009946;28;20053;-70
2020/12/16 03:17:39;;;;;;;27.38;12.05;;;5.30;99.90;;;;;;5016345;28;20472;-70
2020/12/16 03:20:05;;;;;;;27.83;13.48;;;5.30;99.90;;;;;;5015194;28;20042;-71
2020/12/16 03:22:30;;;;;;;26.13;12.90;;;5.20;99.90;;;;;;5014687;28;20456;-71
2020/12/16 03:24:56;;;;;;;28.17;13.45;;;5.20;99.90;;;;;;5015129;28;20058;-69
2020/12/16 03:27:22;;;;;;;27.65;15.88;;;5.20;99.90;;;;;;5014573;28;20082;-70
2020/12/16 03:29:48;;;;;;;52.35;31.38;;;5.30;99.90;;;;;;5014754;28;20026;-70
2020/12/16 03:32:13;;;;;;;83.00;47.80;;;5.20;99.90;;;;;;5014603;28;20029;-70
2020/12/16 03:34:39;;;;;;;74.15;45.20;;;5.20;99.90;;;;;;5014497;28;20026;-70
2020/12/16 03:37:05;;;;;;;81.55;46.05;;;5.20;99.90;;;;;;5014490;28;20080;-67
2020/12/16 03:39:31;;;;;;;62.35;39.17;;;5.20;99.90;;;;;;5014714;28;20474;-71
2020/12/16 03:41:56;;;;;;;62.00;34.92;;;5.20;99.90;;;;;;5014433;28;20384;-72
2020/12/16 03:44:22;;;;;;;58.42;33.58;;;5.30;99.90;;;;;;5013536;28;20026;-72
2020/12/16 03:46:52;;;;;;;47.17;27.67;;;5.30;99.90;;;;;;5014604;28;20053;-72
2020/12/16 03:49:18;;;;;;;47.70;26.27;;;5.30;99.90;;;;;;5014656;28;20483;-72
2020/12/16 03:51:50;;;;;;;42.30;24.80;;;5.30;99.90;;;;;;5010516;28;20494;-71
2020/12/16 03:54:16;;;;;;;37.72;21.55;;;5.30;99.90;;;;;;4997035;28;20033;-70
2020/12/16 03:56:41;;;;;;;42.35;22.85;;;5.40;99.90;;;;;;5014981;28;20026;-71
2020/12/16 03:59:07;;;;;;;48.75;28.10;;;5.40;99.90;;;;;;5015469;28;20526;-71
2020/12/16 04:01:33;;;;;;;37.95;22.23;;;5.30;99.90;;;;;;5018572;28;20050;-69
2020/12/16 04:03:58;;;;;;;29.55;17.58;;;5.40;99.90;;;;;;5020269;28;20098;-70
2020/12/16 04:06:24;;;;;;;28.63;16.13;;;5.40;99.90;;;;;;4997522;28;20112;-70
2020/12/16 04:08:50;;;;;;;28.73;17.75;;;5.40;99.90;;;;;;5014467;28;20068;-69
2020/12/16 04:11:17;;;;;;;27.70;16.35;;;5.40;99.90;;;;;;5014323;28;20032;-70
2020/12/16 04:13:43;;;;;;;30.85;16.85;;;5.30;99.90;;;;;;5013698;28;20492;-71
2020/12/16 04:16:15;;;;;;;25.73;15.70;;;5.40;99.90;;;;;;5013923;28;20357;-71
2020/12/16 04:18:41;;;;;;;24.52;13.38;;;5.30;99.90;;;;;;5013987;28;20064;-70
2020/12/16 04:21:07;;;;;;;29.38;15.73;;;5.40;99.90;;;;;;5013612;28;20058;-71
2020/12/16 04:23:34;;;;;;;28.13;15.05;;;5.30;99.90;;;;;;5013979;28;20072;-71
2020/12/16 04:26:00;;;;;;;25.80;13.70;;;5.30;99.90;;;;;;5013678;28;20101;-70
2020/12/16 04:28:27;;;;;;;24.83;13.75;;;5.30;99.90;;;;;;5013703;28;20097;-71
2020/12/16 04:30:52;;;;;;;20.70;12.57;;;5.20;99.90;;;;;;5014074;28;20124;-70
2020/12/16 04:33:18;;;;;;;24.75;13.35;;;5.20;99.90;;;;;;5013615;28;20060;-70
2020/12/16 04:35:44;;;;;;;21.58;12.10;;;5.20;99.90;;;;;;5013572;28;20100;-69
2020/12/16 04:38:10;;;;;;;23.25;13.80;;;5.20;99.90;;;;;;5013797;28;20084;-70
2020/12/16 04:40:36;;;;;;;24.73;12.50;;;5.20;99.90;;;;;;5013129;28;20484;-70
2020/12/16 04:43:06;;;;;;;25.60;14.90;;;5.20;99.90;;;;;;5013389;28;20018;-69
2020/12/16 04:45:32;;;;;;;22.70;14.00;;;5.20;99.90;;;;;;5019455;28;20071;-72
2020/12/16 04:47:58;;;;;;;28.00;13.82;;;5.30;99.90;;;;;;5021324;28;20026;-69
2020/12/16 04:50:25;;;;;;;28.10;14.70;;;5.20;99.90;;;;;;5021428;28;20032;-71
2020/12/16 04:52:51;;;;;;;31.85;18.02;;;5.30;99.90;;;;;;5023448;28;20141;-71
2020/12/16 04:55:18;;;;;;;39.35;19.73;;;5.30;99.90;;;;;;5032355;28;20033;-72
2020/12/16 04:57:52;;;;;;;51.90;28.85;;;5.30;99.90;;;;;;5029109;28;20036;-70
2020/12/16 05:00:23;;;;;;;50.28;22.70;;;5.40;99.90;;;;;;5028332;28;20056;-70
2020/12/16 05:03:01;;;;;;;43.95;22.85;;;5.40;99.90;;;;;;5028898;28;20021;-71
2020/12/16 05:05:27;;;;;;;58.13;28.90;;;5.40;99.90;;;;;;5031618;28;20021;-69
2020/12/16 05:07:54;;;;;;;35.40;20.55;;;5.50;99.90;;;;;;5012542;28;20032;-70
2020/12/16 05:10:34;;;;;;;34.67;17.95;;;5.50;99.90;;;;;;5032120;28;20021;-71
2020/12/16 05:13:04;;;;;;;33.40;18.38;;;5.60;99.90;;;;;;5029705;28;20058;-71
2020/12/16 05:15:30;;;;;;;35.83;18.42;;;5.60;99.90;;;;;;5031139;28;20028;-70
2020/12/16 05:18:03;;;;;;;33.17;15.52;;;5.60;99.90;;;;;;5013988;28;20068;-71
2020/12/16 05:20:29;;;;;;;24.85;15.82;;;5.60;99.90;;;;;;5009850;28;20098;-70
2020/12/16 05:23:00;;;;;;;22.20;12.48;;;5.60;99.90;;;;;;5032352;28;20025;-72
2020/12/16 05:25:25;;;;;;;27.90;13.65;;;5.60;99.90;;;;;;5027671;28;20375;-72
2020/12/16 05:27:52;;;;;;;24.70;14.50;;;5.60;99.90;;;;;;5027374;28;20022;-72
2020/12/16 05:30:18;;;;;;;22.25;13.85;;;5.60;99.90;;;;;;5024404;28;20025;-70
2020/12/16 05:32:43;;;;;;;22.83;12.57;;;5.60;99.90;;;;;;5032952;28;20464;-70
2020/12/16 05:35:36;;;;;;;22.63;12.63;;;5.60;99.90;;;;;;5032825;28;20464;-73
2020/12/16 05:38:10;;;;;;;22.15;12.05;;;5.60;99.90;;;;;;5032627;28;20032;-72
2020/12/16 05:40:39;;;;;;;24.00;12.43;;;5.60;99.90;;;;;;5032476;28;20124;-71
2020/12/16 05:43:06;;;;;;;21.67;13.43;;;5.60;99.90;;;;;;5028980;28;20084;-71
2020/12/16 05:45:39;;;;;;;23.42;13.07;;;5.60;99.90;;;;;;5025455;28;20026;-69
2020/12/16 05:48:06;;;;;;;37.10;19.13;;;5.60;99.90;;;;;;5013201;28;20036;-68
2020/12/16 05:50:35;;;;;;;30.30;17.23;;;5.60;99.90;;;;;;5031236;28;20510;-69
2020/12/16 05:53:16;;;;;;;33.50;16.80;;;5.60;99.90;;;;;;5032774;28;20028;-70
2020/12/16 05:55:42;;;;;;;42.05;20.15;;;5.60;99.90;;;;;;5032536;28;20372;-70
2020/12/16 05:58:09;;;;;;;32.55;17.10;;;5.60;99.90;;;;;;5032471;28;20029;-72
2020/12/16 06:00:53;;;;;;;25.20;15.18;;;5.60;99.90;;;;;;5032204;28;20052;-70
2020/12/16 06:03:20;;;;;;;28.75;13.00;;;5.50;99.90;;;;;;5032758;28;20034;-71
2020/12/16 06:05:48;;;;;;;29.20;13.52;;;5.50;99.90;;;;;;5028205;28;20026;-70
2020/12/16 06:08:14;;;;;;;32.92;15.18;;;5.50;99.90;;;;;;5024589;28;20132;-70
2020/12/16 06:10:44;;;;;;;29.00;17.38;;;5.40;99.90;;;;;;5034380;28;20033;-68
2020/12/16 06:13:13;;;;;;;33.85;19.00;;;5.40;99.90;;;;;;5035345;28;20101;-69
2020/12/16 06:15:54;;;;;;;34.45;16.73;;;5.40;99.90;;;;;;5035701;28;20030;-69
2020/12/16 06:18:25;;;;;;;27.08;15.70;;;5.40;99.90;;;;;;5026244;28;20428;-70
2020/12/16 06:20:51;;;;;;;30.17;17.17;;;5.40;99.90;;;;;;5032263;28;20040;-69
2020/12/16 06:23:41;;;;;;;37.63;19.73;;;5.40;99.90;;;;;;5036052;28;20021;-69
2020/12/16 06:26:19;;;;;;;36.38;17.08;;;5.40;99.90;;;;;;5035176;28;20057;-70
2020/12/16 06:28:45;;;;;;;30.50;16.52;;;5.40;99.90;;;;;;5035968;28;20018;-70
2020/12/16 06:31:22;;;;;;;30.90;19.70;;;5.50;99.90;;;;;;5000397;28;20057;-70
2020/12/16 06:34:04;;;;;;;33.38;17.42;;;5.50;99.90;;;;;;5026584;28;20060;-71
2020/12/16 06:36:37;;;;;;;34.20;17.15;;;5.50;99.90;;;;;;5035507;28;20025;-73
2020/12/16 06:39:14;;;;;;;30.47;18.30;;;5.60;99.90;;;;;;5035556;28;20025;-71
2020/12/16 06:41:51;;;;;;;44.47;24.98;;;5.60;99.90;;;;;;5017647;28;20037;-70
2020/12/16 06:44:17;;;;;;;62.25;31.08;;;5.60;99.90;;;;;;5035295;28;20026;-75
2020/12/16 06:46:45;;;;;;;43.28;24.23;;;5.70;99.90;;;;;;5019480;28;20037;-69
2020/12/16 06:49:23;;;;;;;40.45;21.92;;;5.70;99.90;;;;;;5023447;28;20026;-70
2020/12/16 06:51:51;;;;;;;37.80;16.23;;;5.70;99.90;;;;;;5003794;28;20030;-71
2020/12/16 06:54:18;;;;;;;24.98;14.40;;;5.80;99.90;;;;;;5009678;28;20053;-69
2020/12/16 06:56:47;;;;;;;27.38;16.55;;;5.80;99.90;;;;;;5015206;28;20026;-69
2020/12/16 06:59:14;;;;;;;28.20;16.25;;;5.80;99.90;;;;;;5015589;28;20033;-69
2020/12/16 07:01:40;;;;;;;28.60;15.48;;;5.80;99.90;;;;;;5015234;28;20530;-71
2020/12/16 07:04:12;;;;;;;33.53;20.25;;;5.80;99.90;;;;;;5015397;28;20026;-72
2020/12/16 07:06:40;;;;;;;36.15;20.25;;;5.80;99.90;;;;;;5015607;28;20052;-71
2020/12/16 07:09:20;;;;;;;32.70;18.13;;;5.80;99.90;;;;;;5015906;28;20372;-70
2020/12/16 07:11:54;;;;;;;31.85;19.25;;;5.90;99.90;;;;;;5015644;28;20025;-70
2020/12/16 07:14:27;;;;;;;40.78;21.38;;;5.90;99.90;;;;;;5014792;28;20018;-71
2020/12/16 07:17:03;;;;;;;;;;;5.90;99.90;;;;;;5015801;28;20041;-70
2020/12/16 07:19:29;;;;;;;41.55;21.83;;;6.00;99.90;;;;;;5019304;28;19906;-70
2020/12/16 07:21:55;;;;;;;44.08;20.67;;;6.00;99.90;;;;;;5025043;28;20116;-70
2020/12/16 07:24:23;;;;;;;40.95;20.65;;;6.00;99.90;;;;;;5034995;28;20460;-72
2020/12/16 07:26:53;;;;;;;39.42;23.10;;;6.00;99.90;;;;;;5008535;28;20459;-69
2020/12/16 07:29:38;;;;;;;40.17;21.67;;;6.00;99.90;;;;;;5030935;28;20017;-70
2020/12/16 07:32:04;;;;;;;28.50;17.98;;;6.00;99.90;;;;;;5020926;28;20030;-71
2020/12/16 07:34:32;;;;;;;36.95;21.40;;;6.10;99.90;;;;;;5028261;28;20033;-70
2020/12/16 07:37:02;;;;;;;32.90;20.02;;;6.10;99.90;;;;;;5017019;28;20026;-71
2020/12/16 07:39:30;;;;;;;40.60;23.40;;;6.20;99.90;;;;;;5032351;28;20558;-69
2020/12/16 07:41:57;;;;;;;44.70;25.52;;;6.30;99.90;;;;;;5017162;28;20037;-70
2020/12/16 07:44:24;;;;;;;31.73;19.73;;;6.20;99.90;;;;;;5031540;28;20108;-71
2020/12/16 07:46:51;;;;;;;26.35;16.20;;;6.30;99.90;;;;;;5017711;28;20101;-71
2020/12/16 07:49:18;;;;;;;36.75;17.35;;;6.40;99.90;;;;;;5022632;28;20014;-71
2020/12/16 07:51:44;;;;;;;35.72;18.75;;;6.50;99.90;;;;;;5034130;28;20033;-70
2020/12/16 07:54:10;;;;;;;31.90;21.48;;;6.50;99.90;;;;;;5033912;28;20018;-72
2020/12/16 07:56:36;;;;;;;33.85;18.95;;;6.70;99.90;;;;;;5017639;28;20427;-70
2020/12/16 07:59:12;;;;;;;27.48;18.40;;;6.70;99.90;;;;;;5018680;28;20442;-70
2020/12/16 08:01:39;;;;;;;25.80;16.05;;;6.80;99.90;;;;;;5034209;28;20041;-71
2020/12/16 08:04:05;;;;;;;31.60;17.15;;;6.70;99.90;;;;;;5023838;28;20034;-72
2020/12/16 08:06:31;;;;;;;21.98;13.77;;;6.80;99.90;;;;;;5020701;28;20099;-71
2020/12/16 08:08:57;;;;;;;29.35;15.00;;;6.80;99.90;;;;;;5000720;28;20455;-71
2020/12/16 08:11:25;;;;;;;26.00;15.52;;;6.80;99.90;;;;;;5020191;28;20036;-70
2020/12/16 08:13:52;;;;;;;20.98;13.05;;;6.90;99.90;;;;;;5022770;28;20514;-69
2020/12/16 08:16:18;;;;;;;20.70;13.10;;;7.00;99.90;;;;;;5029054;28;20025;-74
2020/12/16 08:18:48;;;;;;;18.13;11.02;;;7.00;99.90;;;;;;5030576;28;20029;-71
2020/12/16 08:21:20;;;;;;;20.83;10.80;;;6.90;99.90;;;;;;5018684;28;20502;-69
2020/12/16 08:23:48;;;;;;;17.50;11.15;;;6.90;99.90;;;;;;5030416;28;20116;-71
2020/12/16 08:26:14;;;;;;;23.00;12.80;;;6.90;99.90;;;;;;5028187;28;20030;-68
2020/12/16 08:28:42;;;;;;;25.33;14.13;;;6.90;99.90;;;;;;5022195;28;20029;-72
2020/12/16 08:31:09;;;;;;;22.65;13.57;;;6.90;99.90;;;;;;5024450;28;20040;-72
2020/12/16 08:33:37;;;;;;;21.30;13.63;;;6.90;99.90;;;;;;5025432;28;20037;-72
2020/12/16 08:36:09;;;;;;;18.95;12.45;;;7.00;99.90;;;;;;5021983;28;20041;-73
2020/12/16 08:38:39;;;;;;;23.70;16.43;;;6.80;99.90;;;;;;5025472;28;20025;-72
2020/12/16 08:41:07;;;;;;;21.40;12.05;;;6.80;99.90;;;;;;5030471;28;20112;-69
2020/12/16 08:43:35;;;;;;;18.08;10.35;;;6.80;99.90;;;;;;5011401;28;20136;-70
2020/12/16 08:46:05;;;;;;;21.05;12.82;;;6.70;99.90;;;;;;5021032;28;20037;-68
2020/12/16 08:49:01;;;;;;;16.88;9.07;;;6.70;99.90;;;;;;5019797;28;20024;-69
2020/12/16 08:51:31;;;;;;;24.80;14.48;;;6.70;99.90;;;;;;5020914;28;20045;-71
2020/12/16 08:54:06;;;;;;;33.45;15.27;;;6.70;99.90;;;;;;5018607;28;20026;-70
2020/12/16 08:56:39;;;;;;;16.25;10.77;;;6.80;99.90;;;;;;5022894;28;20100;-71
2020/12/16 08:59:13;;;;;;;22.17;12.68;;;6.70;99.90;;;;;;5020632;28;20028;-72
2020/12/16 09:01:42;;;;;;;20.67;10.73;;;6.90;99.90;;;;;;5023431;28;20103;-71
2020/12/16 09:04:08;;;;;;;17.33;10.18;;;6.90;99.90;;;;;;5028941;28;20487;-71
2020/12/16 09:06:34;;;;;;;17.58;10.68;;;7.10;99.90;;;;;;5001064;28;20026;-70
2020/12/16 09:09:00;;;;;;;15.65;9.90;;;7.20;99.90;;;;;;5009535;28;20030;-71
2020/12/16 09:11:26;;;;;;;14.85;9.05;;;7.20;99.90;;;;;;5003120;28;20594;-73
2020/12/16 09:13:58;;;;;;;21.05;11.63;;;7.40;99.90;;;;;;5031969;28;20095;-71
2020/12/16 09:16:26;;;;;;;19.42;11.73;;;7.50;99.90;;;;;;5014205;28;20053;-73
2020/12/16 09:18:52;;;;;;;18.38;9.95;;;7.60;99.90;;;;;;5027041;28;20025;-71
2020/12/16 09:21:33;;;;;;;15.45;10.25;;;7.60;99.90;;;;;;5030426;28;20111;-72
2020/12/16 09:24:01;;;;;;;18.48;10.20;;;7.60;99.90;;;;;;5031554;28;20018;-73
2020/12/16 09:26:41;;;;;;;16.17;10.93;;;7.60;99.90;;;;;;5032695;28;20061;-73
2020/12/16 09:29:24;;;;;;;27.88;16.45;;;7.70;99.90;;;;;;5017198;28;20402;-71
2020/12/16 09:31:52;;;;;;;32.10;17.88;;;7.80;99.90;;;;;;5016983;28;20511;-71
2020/12/16 09:34:19;;;;;;;27.08;16.27;;;7.90;99.90;;;;;;5030478;28;20025;-70
2020/12/16 09:36:45;;;;;;;23.60;13.65;;;8.00;99.90;;;;;;5032902;28;20048;-71
2020/12/16 09:39:12;;;;;;;20.05;11.40;;;8.10;99.90;;;;;;5022519;28;20519;-71
2020/12/16 09:41:50;;;;;;;17.20;10.57;;;8.00;99.90;;;;;;5020562;28;20118;-70
2020/12/16 09:44:24;;;;;;;17.80;11.88;;;8.00;99.90;;;;;;5035411;28;20021;-70
2020/12/16 09:46:49;;;;;;;16.50;11.35;;;8.00;99.90;;;;;;5017106;28;20478;-71
2020/12/16 09:49:19;;;;;;;21.65;11.82;;;8.00;99.90;;;;;;5024977;28;20022;-70
2020/12/16 09:51:45;;;;;;;15.98;10.40;;;8.00;99.90;;;;;;5004831;28;20461;-71
2020/12/16 09:54:10;;;;;;;16.45;9.45;;;8.00;99.90;;;;;;5036187;28;20027;-71
2020/12/16 09:56:36;;;;;;;20.15;10.55;;;7.80;99.90;;;;;;5036181;28;20038;-72
2020/12/16 09:59:02;;;;;;;14.75;9.75;;;7.80;99.90;;;;;;5035623;28;20022;-71
2020/12/16 10:01:28;;;;;;;16.23;9.80;;;7.70;99.90;;;;;;5035806;28;20080;-69
2020/12/16 10:03:54;;;;;;;19.67;11.27;;;7.70;99.90;;;;;;5035826;28;20044;-71
2020/12/16 10:06:20;;;;;;;14.65;9.55;;;7.70;99.90;;;;;;5036018;28;20380;-72
2020/12/16 10:08:46;;;;;;;15.95;9.57;;;7.70;99.90;;;;;;5003507;28;20026;-71
2020/12/16 10:11:13;;;;;;;15.55;10.55;;;7.70;99.90;;;;;;5022996;28;20095;-69
2020/12/16 10:13:41;;;;;;;26.73;13.65;;;7.70;99.90;;;;;;5035632;28;20018;-71
2020/12/16 10:16:08;;;;;;;36.58;21.58;;;7.80;99.90;;;;;;5036499;28;20474;-71
2020/12/16 10:18:33;;;;;;;24.52;16.63;;;7.90;99.90;;;;;;5031085;28;20375;-70
2020/12/16 10:20:59;;;;;;;26.23;18.75;;;8.00;99.90;;;;;;5025012;28;20037;-70
2020/12/16 10:23:25;;;;;;;30.33;18.30;;;8.10;99.90;;;;;;5020208;28;20018;-71
2020/12/16 10:25:51;;;;;;;26.83;15.50;;;8.20;99.90;;;;;;5019789;28;20022;-70
2020/12/16 10:28:18;;;;;;;28.08;16.13;;;8.20;99.90;;;;;;5004341;28;20025;-71
2020/12/16 10:30:44;;;;;;;28.20;15.90;;;8.20;99.90;;;;;;5019023;28;20030;-69
2020/12/16 10:33:10;;;;;;;22.42;15.15;;;8.20;99.90;;;;;;5028887;28;20032;-70
2020/12/16 10:35:36;;;;;;;18.98;11.15;;;8.10;99.90;;;;;;5019523;28;20030;-71
2020/12/16 10:38:02;;;;;;;18.10;11.70;;;8.10;99.90;;;;;;5021665;28;20387;-71
2020/12/16 10:40:31;;;;;;;30.92;16.58;;;8.10;99.90;;;;;;5033025;28;20040;-71
2020/12/16 10:43:00;;;;;;;27.60;16.73;;;8.10;99.90;;;;;;5031940;28;20017;-70
2020/12/16 10:45:26;;;;;;;32.13;18.85;;;8.20;99.90;;;;;;5027166;28;20030;-72
2020/12/16 10:47:57;;;;;;;35.55;17.25;;;8.30;99.90;;;;;;5015829;28;20030;-69
2020/12/16 10:50:24;;;;;;;26.05;15.15;;;8.40;99.90;;;;;;5019847;28;20036;-71
2020/12/16 10:52:50;;;;;;;28.15;17.50;;;8.50;99.90;;;;;;5034920;28;20475;-72
2020/12/16 10:55:16;;;;;;;30.92;16.77;;;8.50;99.90;;;;;;5028072;28;20143;-71
2020/12/16 10:57:42;;;;;;;29.92;16.30;;;8.60;99.90;;;;;;5031592;28;20437;-71
2020/12/16 11:00:08;;;;;;;25.70;13.63;;;8.70;99.90;;;;;;5024649;28;20041;-71
2020/12/16 11:02:34;;;;;;;19.52;12.88;;;8.70;99.90;;;;;;5034999;28;20041;-71
2020/12/16 11:05:00;;;;;;;17.55;10.85;;;8.80;99.90;;;;;;5016648;28;20082;-72
2020/12/16 11:07:26;;;;;;;16.55;9.40;;;8.80;99.90;;;;;;5027336;28;20031;-69
2020/12/16 11:09:51;;;;;;;18.38;11.80;;;8.80;99.90;;;;;;5014910;28;20466;-73
2020/12/16 11:12:17;;;;;;;23.25;12.45;;;8.80;99.90;;;;;;5019998;28;20097;-74
2020/12/16 11:14:43;;;;;;;18.83;11.82;;;8.80;99.90;;;;;;5023992;28;20037;-69
2020/12/16 11:17:09;;;;;;;18.40;10.70;;;8.80;99.90;;;;;;5034533;28;20070;-72
2020/12/16 11:19:35;;;;;;;15.82;9.98;;;8.80;99.90;;;;;;5029958;28;20464;-70
2020/12/16 11:22:00;;;;;;;16.27;9.95;;;8.80;99.90;;;;;;5010752;28;20037;-71
2020/12/16 11:24:27;;;;;;;22.05;13.68;;;8.80;99.90;;;;;;5000212;28;20052;-69
2020/12/16 11:26:53;;;;;;;19.50;12.05;;;8.80;99.90;;;;;;5014393;28;20038;-71
2020/12/16 11:29:24;;;;;;;24.75;13.35;;;8.80;99.90;;;;;;5026837;28;20067;-69
2020/12/16 11:31:55;;;;;;;23.77;13.98;;;8.80;99.90;;;;;;5034191;28;20029;-69
2020/12/16 11:34:22;;;;;;;24.27;13.23;;;8.70;99.90;;;;;;5029417;28;20026;-71
2020/12/16 11:36:50;;;;;;;26.38;13.55;;;8.80;99.90;;;;;;5031492;28;20105;-69
2020/12/16 11:39:17;;;;;;;26.63;15.07;;;8.80;99.90;;;;;;5028642;28;20049;-71
2020/12/16 11:41:48;;;;;;;24.52;14.32;;;8.80;99.90;;;;;;5029327;28;20030;-68
2020/12/16 11:44:15;;;;;;;30.70;19.02;;;8.90;99.90;;;;;;5013572;28;20444;-71
2020/12/16 11:46:43;;;;;;;29.02;13.65;;;9.00;99.90;;;;;;5017212;28;20113;-71
2020/12/16 11:49:09;;;;;;;14.80;9.50;;;9.00;99.90;;;;;;5027123;28;20068;-71
2020/12/16 11:51:37;;;;;;;20.83;12.88;;;9.10;99.90;;;;;;5015862;28;20030;-73
2020/12/16 11:54:03;;;;;;;27.35;17.38;;;9.10;99.90;;;;;;5025154;28;20022;-72
2020/12/16 11:56:35;;;;;;;39.00;17.85;;;9.10;99.90;;;;;;5004671;28;20022;-72
2020/12/16 11:59:02;;;;;;;21.40;11.20;;;9.10;99.90;;;;;;5028636;28;20030;-70
2020/12/16 12:01:28;;;;;;;16.70;9.90;;;9.20;99.90;;;;;;5030330;28;20076;-71
2020/12/16 12:03:53;;;;;;;21.10;12.68;;;9.20;99.90;;;;;;5030658;28;20049;-70
2020/12/16 12:06:19;;;;;;;23.52;12.55;;;9.10;99.90;;;;;;5024820;28;20089;-69
2020/12/16 12:08:45;;;;;;;16.45;9.68;;;9.20;99.90;;;;;;5030437;28;20026;-70
2020/12/16 12:11:16;;;;;;;18.67;12.00;;;9.20;99.90;;;;;;5024588;28;20026;-70
2020/12/16 12:13:43;;;;;;;21.88;12.40;;;9.20;99.90;;;;;;5029311;28;20033;-68
2020/12/16 12:16:10;;;;;;;21.42;11.93;;;9.30;99.90;;;;;;5031266;28;20084;-69
2020/12/16 12:18:38;;;;;;;26.20;17.48;;;9.40;99.90;;;;;;5017908;28;20101;-70
2020/12/16 12:21:05;;;;;;;32.90;19.83;;;9.50;99.90;;;;;;5022869;28;20068;-70
2020/12/16 12:23:30;;;;;;;22.17;15.90;;;9.70;99.90;;;;;;5025861;28;20032;-69
2020/12/16 12:25:56;;;;;;;22.45;14.07;;;9.90;99.90;;;;;;5004309;28;20033;-70
2020/12/16 12:28:22;;;;;;;26.20;16.48;;;10.10;99.90;;;;;;5018793;28;20018;-74
2020/12/16 12:30:49;;;;;;;37.55;23.05;;;10.20;99.90;;;;;;5026717;28;20383;-71
2020/12/16 12:33:14;;;;;;;33.97;20.05;;;10.10;99.90;;;;;;5021280;28;20026;-71
2020/12/16 12:35:40;;;;;;;30.60;17.13;;;10.50;99.90;;;;;;5013352;28;20029;-72
2020/12/16 12:38:06;;;;;;;43.95;22.10;;;9.90;99.90;;;;;;5027067;28;20033;-76
2020/12/16 12:40:32;;;;;;;35.55;19.27;;;10.40;99.90;;;;;;5029042;28;20060;-74
2020/12/16 12:42:57;;;;;;;20.48;11.80;;;10.60;99.90;;;;;;5027734;28;20052;-77